43  °F
Temperature
34  °F
  Dewpoint
   Humidity
Temp | Dewpoint | Humidity
8  km/h
Wind Speed
5  mph
Wind Speed
4  kts
Wind Speed
Calm
Due North

Wind Speed
Light Rain
Showers
Pressure 1020.02 (hPa) - 30.12 (in)
Visibility 10.0 (mi) - 16.1 (km)

Current Conditions
KAVP
Location 6km (3.2mi)
Metar :KAVP 181554Z VRB04KT 10SM -RA FEW021 OVC027 06/01 A3012 RMK AO2 RAB45 SLP204 P0000 T00560006
Tue 18th February 10:54 am

Airport
  Metar Aviation API Data Provided by https://www.checkwx.com/ CSS/SVG/PHP scripts by weather34.com © 2015-2020